sensor_id;sensor_type;location;lat;lon;timestamp;temperature;humidity
82809;DHT22;72566;49.500;11.754;2023-08-30T13:33:12;22.90;53.70
82809;DHT22;72566;49.500;11.754;2023-08-30T13:35:41;23.10;53.70
82809;DHT22;72566;49.500;11.754;2023-08-30T13:38:06;23.00;53.90
82809;DHT22;72566;49.500;11.754;2023-08-30T13:40:32;22.80;54.30
82809;DHT22;72566;49.500;11.754;2023-08-30T13:42:58;22.90;54.20
82809;DHT22;72566;49.500;11.754;2023-08-30T13:45:23;22.90;53.90
82809;DHT22;72566;49.500;11.754;2023-08-30T13:47:49;22.70;54.80
82809;DHT22;72566;49.500;11.754;2023-08-30T13:50:17;22.80;54.60
82809;DHT22;72566;49.500;11.754;2023-08-30T13:52:42;22.30;52.90
82809;DHT22;72566;49.500;11.754;2023-08-30T13:55:08;22.60;55.00
82809;DHT22;72566;49.500;11.754;2023-08-30T13:57:34;22.60;54.70
82809;DHT22;72566;49.500;11.754;2023-08-30T13:59:59;22.70;54.70
82809;DHT22;72566;49.500;11.754;2023-08-30T14:02:29;22.70;54.50
82809;DHT22;72566;49.500;11.754;2023-08-30T14:04:54;22.70;54.20
82809;DHT22;72566;49.500;11.754;2023-08-30T14:07:20;22.70;54.20
82809;DHT22;72566;49.500;11.754;2023-08-30T14:09:45;22.80;54.10
82809;DHT22;72566;49.500;11.754;2023-08-30T14:12:11;22.80;54.10
82809;DHT22;72566;49.500;11.754;2023-08-30T14:14:36;22.80;53.90
82809;DHT22;72566;49.500;11.754;2023-08-30T14:17:02;22.80;53.70
82809;DHT22;72566;49.500;11.754;2023-08-30T14:19:28;22.70;53.80
82809;DHT22;72566;49.500;11.754;2023-08-30T14:21:55;22.70;54.20
82809;DHT22;72566;49.500;11.754;2023-08-30T14:24:23;22.70;54.10
82809;DHT22;72566;49.500;11.754;2023-08-30T14:26:48;22.70;54.10
82809;DHT22;72566;49.500;11.754;2023-08-30T14:29:14;22.70;54.10
82809;DHT22;72566;49.500;11.754;2023-08-30T14:31:40;22.70;53.90
82809;DHT22;72566;49.500;11.754;2023-08-30T14:34:05;22.70;53.80
82809;DHT22;72566;49.500;11.754;2023-08-30T14:36:31;22.70;53.90
82809;DHT22;72566;49.500;11.754;2023-08-30T14:38:56;22.60;54.50
82809;DHT22;72566;49.500;11.754;2023-08-30T14:41:22;22.70;54.50
82809;DHT22;72566;49.500;11.754;2023-08-30T14:43:48;22.80;53.70
82809;DHT22;72566;49.500;11.754;2023-08-30T14:46:13;22.80;53.80
82809;DHT22;72566;49.500;11.754;2023-08-30T14:48:41;22.80;53.70
82809;DHT22;72566;49.500;11.754;2023-08-30T14:51:06;22.80;53.50
82809;DHT22;72566;49.500;11.754;2023-08-30T14:53:32;22.80;53.70
82809;DHT22;72566;49.500;11.754;2023-08-30T14:55:58;22.80;53.80
82809;DHT22;72566;49.500;11.754;2023-08-30T14:58:24;22.90;53.90
82809;DHT22;72566;49.500;11.754;2023-08-30T15:00:50;22.90;53.40
82809;DHT22;72566;49.500;11.754;2023-08-30T15:03:15;23.00;54.80
82809;DHT22;72566;49.500;11.754;2023-08-30T15:05:41;22.90;54.00
82809;DHT22;72566;49.500;11.754;2023-08-30T15:08:07;22.90;54.30
82809;DHT22;72566;49.500;11.754;2023-08-30T15:10:33;22.40;54.10
82809;DHT22;72566;49.500;11.754;2023-08-30T15:12:59;22.70;54.60
82809;DHT22;72566;49.500;11.754;2023-08-30T15:15:25;22.80;54.30
82809;DHT22;72566;49.500;11.754;2023-08-30T15:17:50;22.80;54.60
82809;DHT22;72566;49.500;11.754;2023-08-30T17:12:38;23.90;59.30
82809;DHT22;72566;49.500;11.754;2023-08-30T17:15:05;24.10;56.70
82809;DHT22;72566;49.500;11.754;2023-08-30T17:17:31;24.60;55.20
82809;DHT22;72566;49.500;11.754;2023-08-30T17:19:56;25.10;52.50
